sensor_id;sensor_type;location;lat;lon;timestamp;P1;durP1;ratioP1;P2;durP2;ratioP2
489;SDS011;231;48.120;11.576;2023-04-25T01:32:53;3.07;;;2.87;;
489;SDS011;231;48.120;11.576;2023-04-25T01:35:21;3.07;;;2.90;;
489;SDS011;231;48.120;11.576;2023-04-25T01:37:50;4.03;;;2.70;;
489;SDS011;231;48.120;11.576;2023-04-25T01:40:17;3.47;;;3.27;;
489;SDS011;231;48.120;11.576;2023-04-25T01:42:45;3.13;;;2.93;;
489;SDS011;231;48.120;11.576;2023-04-25T01:45:12;2.97;;;2.77;;
489;SDS011;231;48.120;11.576;2023-04-25T01:47:39;3.17;;;2.97;;
489;SDS011;231;48.120;11.576;2023-04-25T01:50:09;3.07;;;2.90;;
489;SDS011;231;48.120;11.576;2023-04-25T01:52:37;3.13;;;2.93;;
489;SDS011;231;48.120;11.576;2023-04-25T01:55:04;3.10;;;2.90;;
489;SDS011;231;48.120;11.576;2023-04-25T01:57:31;4.07;;;3.43;;
489;SDS011;231;48.120;11.576;2023-04-25T01:59:59;3.77;;;3.13;;
489;SDS011;231;48.120;11.576;2023-04-25T02:02:27;3.50;;;3.30;;
489;SDS011;231;48.120;11.576;2023-04-25T02:04:54;3.70;;;3.50;;
489;SDS011;231;48.120;11.576;2023-04-25T02:07:22;4.07;;;3.90;;
489;SDS011;231;48.120;11.576;2023-04-25T02:09:49;5.63;;;4.30;;
489;SDS011;231;48.120;11.576;2023-04-25T02:12:16;3.63;;;3.43;;
489;SDS011;231;48.120;11.576;2023-04-25T02:14:43;3.37;;;3.17;;
489;SDS011;231;48.120;11.576;2023-04-25T02:17:10;3.93;;;3.77;;
489;SDS011;231;48.120;11.576;2023-04-25T02:19:37;3.80;;;3.50;;
489;SDS011;231;48.120;11.576;2023-04-25T02:22:04;5.60;;;4.00;;
489;SDS011;231;48.120;11.576;2023-04-25T02:24:32;3.77;;;3.50;;
489;SDS011;231;48.120;11.576;2023-04-25T02:26:59;3.23;;;3.03;;
489;SDS011;231;48.120;11.576;2023-04-25T02:29:26;7.47;;;4.20;;
489;SDS011;231;48.120;11.576;2023-04-25T02:31:53;3.60;;;3.40;;
489;SDS011;231;48.120;11.576;2023-04-25T02:34:20;3.43;;;3.23;;
489;SDS011;231;48.120;11.576;2023-04-25T02:36:47;4.07;;;3.87;;
489;SDS011;231;48.120;11.576;2023-04-25T02:39:14;3.33;;;3.13;;
489;SDS011;231;48.120;11.576;2023-04-25T02:41:42;3.90;;;3.40;;
489;SDS011;231;48.120;11.576;2023-04-25T02:44:09;6.17;;;3.70;;
489;SDS011;231;48.120;11.576;2023-04-25T02:46:36;7.53;;;3.97;;
489;SDS011;231;48.120;11.576;2023-04-25T02:49:03;3.43;;;3.23;;
489;SDS011;231;48.120;11.576;2023-04-25T02:51:30;5.03;;;3.37;;
489;SDS011;231;48.120;11.576;2023-04-25T02:53:57;3.57;;;3.37;;
489;SDS011;231;48.120;11.576;2023-04-25T02:56:24;7.20;;;3.43;;
489;SDS011;231;48.120;11.576;2023-04-25T02:58:53;3.30;;;3.10;;
489;SDS011;231;48.120;11.576;2023-04-25T03:01:20;3.73;;;3.53;;
489;SDS011;231;48.120;11.576;2023-04-25T03:03:47;3.53;;;2.87;;
489;SDS011;231;48.120;11.576;2023-04-25T03:06:14;3.60;;;3.40;;
489;SDS011;231;48.120;11.576;2023-04-25T03:08:40;2.90;;;2.70;;
489;SDS011;231;48.120;11.576;2023-04-25T03:11:07;4.90;;;3.50;;
489;SDS011;231;48.120;11.576;2023-04-25T03:13:35;3.30;;;3.10;;
489;SDS011;231;48.120;11.576;2023-04-25T03:16:03;6.70;;;3.50;;
489;SDS011;231;48.120;11.576;2023-04-25T03:18:30;3.90;;;3.30;;
489;SDS011;231;48.120;11.576;2023-04-25T03:20:57;3.40;;;3.20;;
489;SDS011;231;48.120;11.576;2023-04-25T03:23:24;3.50;;;3.30;;
489;SDS011;231;48.120;11.576;2023-04-25T03:25:51;10.10;;;3.80;;
489;SDS011;231;48.120;11.576;2023-04-25T03:28:18;3.47;;;3.20;;
489;SDS011;231;48.120;11.576;2023-04-25T03:30:45;5.90;;;3.80;;
489;SDS011;231;48.120;11.576;2023-04-25T03:33:13;3.27;;;3.07;;
489;SDS011;231;48.120;11.576;2023-04-25T03:35:39;3.37;;;3.00;;
489;SDS011;231;48.120;11.576;2023-04-25T03:38:07;5.43;;;3.50;;
489;SDS011;231;48.120;11.576;2023-04-25T03:40:34;3.83;;;3.50;;
489;SDS011;231;48.120;11.576;2023-04-25T03:43:01;3.83;;;3.23;;
489;SDS011;231;48.120;11.576;2023-04-25T03:45:28;3.47;;;3.27;;
489;SDS011;231;48.120;11.576;2023-04-25T03:47:54;3.70;;;2.43;;
489;SDS011;231;48.120;11.576;2023-04-25T03:50:23;3.23;;;3.03;;
489;SDS011;231;48.120;11.576;2023-04-25T03:52:50;2.17;;;2.00;;
489;SDS011;231;48.120;11.576;2023-04-25T03:55:16;2.90;;;2.70;;
489;SDS011;231;48.120;11.576;2023-04-25T03:57:44;2.40;;;2.23;;
489;SDS011;231;48.120;11.576;2023-04-25T04:00:14;3.27;;;3.10;;
489;SDS011;231;48.120;11.576;2023-04-25T04:09:33;2.80;;;2.50;;
489;SDS011;231;48.120;11.576;2023-04-25T04:12:33;2.53;;;2.23;;
489;SDS011;231;48.120;11.576;2023-04-25T04:15:26;4.97;;;2.63;;
489;SDS011;231;48.120;11.576;2023-04-25T04:21:48;3.47;;;2.50;;
489;SDS011;231;48.120;11.576;2023-04-25T04:24:41;2.93;;;2.40;;
489;SDS011;231;48.120;11.576;2023-04-25T04:30:47;3.00;;;2.43;;
489;SDS011;231;48.120;11.576;2023-04-25T05:51:58;4.87;;;4.53;;
489;SDS011;231;48.120;11.576;2023-04-25T05:54:25;6.90;;;5.00;;
489;SDS011;231;48.120;11.576;2023-04-25T06:00:22;5.07;;;4.77;;
489;SDS011;231;48.120;11.576;2023-04-25T06:02:49;3.97;;;3.80;;
489;SDS011;231;48.120;11.576;2023-04-25T06:05:16;5.23;;;4.37;;
489;SDS011;231;48.120;11.576;2023-04-25T06:07:45;6.10;;;4.10;;
489;SDS011;231;48.120;11.576;2023-04-25T06:10:13;4.80;;;3.97;;
489;SDS011;231;48.120;11.576;2023-04-25T06:19:44;9.03;;;5.10;;
489;SDS011;231;48.120;11.576;2023-04-25T06:23:13;5.90;;;4.37;;
489;SDS011;231;48.120;11.576;2023-04-25T06:40:01;7.53;;;6.97;;
489;SDS011;231;48.120;11.576;2023-04-25T06:42:49;14.60;;;11.47;;
489;SDS011;231;48.120;11.576;2023-04-25T06:45:35;15.40;;;14.10;;
489;SDS011;231;48.120;11.576;2023-04-25T06:48:28;13.17;;;12.47;;
489;SDS011;231;48.120;11.576;2023-04-25T06:51:45;12.67;;;12.00;;
489;SDS011;231;48.120;11.576;2023-04-25T06:54:57;12.80;;;12.10;;
489;SDS011;231;48.120;11.576;2023-04-25T06:57:33;13.03;;;12.27;;
489;SDS011;231;48.120;11.576;2023-04-25T07:00:43;13.50;;;12.80;;
489;SDS011;231;48.120;11.576;2023-04-25T07:03:20;11.77;;;11.17;;
489;SDS011;231;48.120;11.576;2023-04-25T07:05:48;9.80;;;9.30;;
489;SDS011;231;48.120;11.576;2023-04-25T07:08:16;7.50;;;7.10;;
489;SDS011;231;48.120;11.576;2023-04-25T07:10:44;6.67;;;6.27;;
489;SDS011;231;48.120;11.576;2023-04-25T07:13:12;6.00;;;5.70;;
489;SDS011;231;48.120;11.576;2023-04-25T07:15:39;11.30;;;6.67;;
489;SDS011;231;48.120;11.576;2023-04-25T07:18:07;6.30;;;5.40;;
489;SDS011;231;48.120;11.576;2023-04-25T07:20:34;5.73;;;4.80;;
489;SDS011;231;48.120;11.576;2023-04-25T07:23:04;4.70;;;4.20;;
489;SDS011;231;48.120;11.576;2023-04-25T07:25:32;4.20;;;3.93;;
489;SDS011;231;48.120;11.576;2023-04-25T07:28:01;4.93;;;4.63;;
489;SDS011;231;48.120;11.576;2023-04-25T07:30:29;5.77;;;5.47;;
489;SDS011;231;48.120;11.576;2023-04-25T07:32:59;6.27;;;4.33;;
489;SDS011;231;48.120;11.576;2023-04-25T07:35:33;4.83;;;4.57;;
489;SDS011;231;48.120;11.576;2023-04-25T07:38:03;7.60;;;5.23;;
489;SDS011;231;48.120;11.576;2023-04-25T07:40:31;5.93;;;4.40;;
489;SDS011;231;48.120;11.576;2023-04-25T07:42:59;5.70;;;3.47;;
489;SDS011;231;48.120;11.576;2023-04-25T07:45:27;4.40;;;3.37;;
489;SDS011;231;48.120;11.576;2023-04-25T07:47:54;4.13;;;3.43;;
489;SDS011;231;48.120;11.576;2023-04-25T07:50:21;5.37;;;3.67;;
489;SDS011;231;48.120;11.576;2023-04-25T07:52:48;4.40;;;3.43;;
489;SDS011;231;48.120;11.576;2023-04-25T07:55:14;4.27;;;2.70;;
489;SDS011;231;48.120;11.576;2023-04-25T07:57:41;2.67;;;2.47;;
489;SDS011;231;48.120;11.576;2023-04-25T08:00:08;2.93;;;2.73;;
489;SDS011;231;48.120;11.576;2023-04-25T08:02:38;6.97;;;3.63;;
489;SDS011;231;48.120;11.576;2023-04-25T08:05:05;2.60;;;2.40;;
489;SDS011;231;48.120;11.576;2023-04-25T08:07:33;5.20;;;3.20;;
489;SDS011;231;48.120;11.576;2023-04-25T08:10:00;3.10;;;2.87;;
489;SDS011;231;48.120;11.576;2023-04-25T08:12:27;2.60;;;2.40;;
489;SDS011;231;48.120;11.576;2023-04-25T08:14:54;4.47;;;2.73;;
489;SDS011;231;48.120;11.576;2023-04-25T08:17:21;2.47;;;2.27;;
489;SDS011;231;48.120;11.576;2023-04-25T08:19:50;3.30;;;3.10;;
489;SDS011;231;48.120;11.576;2023-04-25T08:22:16;2.50;;;2.30;;
489;SDS011;231;48.120;11.576;2023-04-25T08:24:43;2.57;;;2.23;;
489;SDS011;231;48.120;11.576;2023-04-25T08:27:10;5.33;;;2.60;;
489;SDS011;231;48.120;11.576;2023-04-25T08:29:38;2.83;;;2.67;;
489;SDS011;231;48.120;11.576;2023-04-25T08:32:04;2.97;;;2.77;;
489;SDS011;231;48.120;11.576;2023-04-25T08:34:31;3.13;;;2.50;;
489;SDS011;231;48.120;11.576;2023-04-25T08:36:59;3.03;;;2.83;;
489;SDS011;231;48.120;11.576;2023-04-25T08:39:29;4.23;;;2.70;;
489;SDS011;231;48.120;11.576;2023-04-25T08:41:56;3.37;;;2.37;;
489;SDS011;231;48.120;11.576;2023-04-25T08:44:23;3.13;;;2.93;;
489;SDS011;231;48.120;11.576;2023-04-25T08:46:50;2.57;;;2.37;;
489;SDS011;231;48.120;11.576;2023-04-25T08:49:19;3.10;;;2.97;;
489;SDS011;231;48.120;11.576;2023-04-25T08:51:46;3.10;;;2.90;;
489;SDS011;231;48.120;11.576;2023-04-25T08:54:16;2.23;;;2.03;;
489;SDS011;231;48.120;11.576;2023-04-25T08:56:44;6.40;;;2.40;;
489;SDS011;231;48.120;11.576;2023-04-25T08:59:13;2.90;;;2.00;;
489;SDS011;231;48.120;11.576;2023-04-25T09:01:40;2.43;;;2.23;;
489;SDS011;231;48.120;11.576;2023-04-25T09:04:07;1.93;;;1.67;;
489;SDS011;231;48.120;11.576;2023-04-25T09:06:33;2.73;;;1.83;;
489;SDS011;231;48.120;11.576;2023-04-25T09:09:05;2.40;;;1.57;;
489;SDS011;231;48.120;11.576;2023-04-25T09:11:34;2.00;;;1.87;;
489;SDS011;231;48.120;11.576;2023-04-25T09:14:12;1.87;;;1.80;;
489;SDS011;231;48.120;11.576;2023-04-25T09:16:56;1.80;;;1.70;;
489;SDS011;231;48.120;11.576;2023-04-25T09:19:25;2.60;;;1.83;;
489;SDS011;231;48.120;11.576;2023-04-25T09:21:53;1.53;;;1.43;;
489;SDS011;231;48.120;11.576;2023-04-25T09:24:29;1.80;;;1.70;;
489;SDS011;231;48.120;11.576;2023-04-25T09:26:59;1.97;;;1.87;;
489;SDS011;231;48.120;11.576;2023-04-25T09:29:29;2.20;;;2.00;;
489;SDS011;231;48.120;11.576;2023-04-25T09:32:13;2.07;;;1.90;;
489;SDS011;231;48.120;11.576;2023-04-25T09:34:42;4.67;;;2.20;;
489;SDS011;231;48.120;11.576;2023-04-25T09:37:10;1.93;;;1.83;;
489;SDS011;231;48.120;11.576;2023-04-25T09:39:37;3.80;;;2.60;;
489;SDS011;231;48.120;11.576;2023-04-25T09:42:06;2.10;;;1.43;;
489;SDS011;231;48.120;11.576;2023-04-25T09:44:35;1.60;;;1.50;;
489;SDS011;231;48.120;11.576;2023-04-25T09:47:02;2.47;;;2.00;;
489;SDS011;231;48.120;11.576;2023-04-25T09:49:29;1.57;;;1.30;;
489;SDS011;231;48.120;11.576;2023-04-25T09:51:56;2.60;;;1.93;;
489;SDS011;231;48.120;11.576;2023-04-25T09:54:23;2.30;;;1.93;;
489;SDS011;231;48.120;11.576;2023-04-25T09:56:51;2.77;;;2.13;;
489;SDS011;231;48.120;11.576;2023-04-25T09:59:20;2.57;;;2.37;;
489;SDS011;231;48.120;11.576;2023-04-25T10:01:49;3.40;;;2.30;;
489;SDS011;231;48.120;11.576;2023-04-25T10:04:18;1.73;;;1.60;;
489;SDS011;231;48.120;11.576;2023-04-25T10:06:49;1.87;;;1.77;;
489;SDS011;231;48.120;11.576;2023-04-25T10:09:18;2.37;;;2.17;;
489;SDS011;231;48.120;11.576;2023-04-25T10:11:47;2.70;;;2.50;;
489;SDS011;231;48.120;11.576;2023-04-25T10:14:14;2.17;;;2.00;;
489;SDS011;231;48.120;11.576;2023-04-25T10:16:43;5.73;;;2.47;;
489;SDS011;231;48.120;11.576;2023-04-25T10:19:11;1.77;;;1.67;;
489;SDS011;231;48.120;11.576;2023-04-25T10:21:40;1.73;;;1.70;;
489;SDS011;231;48.120;11.576;2023-04-25T10:24:14;1.87;;;1.77;;
489;SDS011;231;48.120;11.576;2023-04-25T10:26:41;4.17;;;1.90;;
489;SDS011;231;48.120;11.576;2023-04-25T10:29:08;3.00;;;2.80;;
489;SDS011;231;48.120;11.576;2023-04-25T10:31:44;3.40;;;1.93;;
489;SDS011;231;48.120;11.576;2023-04-25T10:34:13;1.87;;;1.77;;
489;SDS011;231;48.120;11.576;2023-04-25T10:36:47;4.77;;;2.20;;
489;SDS011;231;48.120;11.576;2023-04-25T10:39:29;7.23;;;2.70;;
489;SDS011;231;48.120;11.576;2023-04-25T10:41:56;5.23;;;3.10;;
489;SDS011;231;48.120;11.576;2023-04-25T10:44:26;2.83;;;2.70;;
489;SDS011;231;48.120;11.576;2023-04-25T10:46:56;4.10;;;2.43;;
489;SDS011;231;48.120;11.576;2023-04-25T10:49:33;5.03;;;2.90;;
489;SDS011;231;48.120;11.576;2023-04-25T10:52:15;5.47;;;3.13;;
489;SDS011;231;48.120;11.576;2023-04-25T10:54:47;3.97;;;2.40;;
489;SDS011;231;48.120;11.576;2023-04-25T10:57:32;2.90;;;2.30;;
489;SDS011;231;48.120;11.576;2023-04-25T11:00:07;2.93;;;2.70;;
489;SDS011;231;48.120;11.576;2023-04-25T11:02:38;3.83;;;3.63;;
489;SDS011;231;48.120;11.576;2023-04-25T11:05:08;4.13;;;3.80;;
489;SDS011;231;48.120;11.576;2023-04-25T11:07:37;3.70;;;3.50;;
489;SDS011;231;48.120;11.576;2023-04-25T11:10:08;5.23;;;4.30;;
489;SDS011;231;48.120;11.576;2023-04-25T11:12:35;3.13;;;2.93;;
489;SDS011;231;48.120;11.576;2023-04-25T11:15:03;3.40;;;3.20;;
489;SDS011;231;48.120;11.576;2023-04-25T11:17:31;3.37;;;3.17;;
489;SDS011;231;48.120;11.576;2023-04-25T11:19:59;2.37;;;2.17;;
489;SDS011;231;48.120;11.576;2023-04-25T11:22:26;2.33;;;2.07;;
489;SDS011;231;48.120;11.576;2023-04-25T11:24:54;3.10;;;2.67;;
489;SDS011;231;48.120;11.576;2023-04-25T11:27:21;2.30;;;1.90;;
489;SDS011;231;48.120;11.576;2023-04-25T11:29:49;2.40;;;1.90;;
489;SDS011;231;48.120;11.576;2023-04-25T11:32:17;2.20;;;2.00;;
489;SDS011;231;48.120;11.576;2023-04-25T11:34:44;3.47;;;2.20;;
489;SDS011;231;48.120;11.576;2023-04-25T11:37:12;2.27;;;1.30;;
489;SDS011;231;48.120;11.576;2023-04-25T11:39:44;3.10;;;1.97;;
489;SDS011;231;48.120;11.576;2023-04-25T11:42:13;1.97;;;1.87;;
489;SDS011;231;48.120;11.576;2023-04-25T11:44:40;1.93;;;1.87;;
489;SDS011;231;48.120;11.576;2023-04-25T11:47:06;2.87;;;2.67;;
489;SDS011;231;48.120;11.576;2023-04-25T11:49:33;3.70;;;2.90;;
489;SDS011;231;48.120;11.576;2023-04-25T11:52:01;2.20;;;2.00;;
489;SDS011;231;48.120;11.576;2023-04-25T11:54:30;2.80;;;2.40;;
489;SDS011;231;48.120;11.576;2023-04-25T11:56:57;2.40;;;2.20;;
489;SDS011;231;48.120;11.576;2023-04-25T11:59:24;2.47;;;2.23;;
489;SDS011;231;48.120;11.576;2023-04-25T12:01:52;4.07;;;2.90;;
489;SDS011;231;48.120;11.576;2023-04-25T12:04:19;2.23;;;1.97;;
489;SDS011;231;48.120;11.576;2023-04-25T12:06:48;2.00;;;1.47;;
489;SDS011;231;48.120;11.576;2023-04-25T12:09:17;1.73;;;1.63;;
489;SDS011;231;48.120;11.576;2023-04-25T12:11:48;1.60;;;1.50;;
489;SDS011;231;48.120;11.576;2023-04-25T12:14:22;1.23;;;1.20;;
489;SDS011;231;48.120;11.576;2023-04-25T12:16:50;2.00;;;1.50;;
489;SDS011;231;48.120;11.576;2023-04-25T12:19:20;1.97;;;1.87;;
489;SDS011;231;48.120;11.576;2023-04-25T12:21:48;2.10;;;1.40;;
489;SDS011;231;48.120;11.576;2023-04-25T12:24:16;2.63;;;1.40;;
489;SDS011;231;48.120;11.576;2023-04-25T12:26:50;1.70;;;1.60;;
489;SDS011;231;48.120;11.576;2023-04-25T12:29:19;1.40;;;1.30;;
489;SDS011;231;48.120;11.576;2023-04-25T12:31:46;2.97;;;1.77;;
489;SDS011;231;48.120;11.576;2023-04-25T12:34:13;3.90;;;1.87;;
489;SDS011;231;48.120;11.576;2023-04-25T12:36:41;1.63;;;1.53;;
489;SDS011;231;48.120;11.576;2023-04-25T12:39:09;4.10;;;2.07;;
489;SDS011;231;48.120;11.576;2023-04-25T12:41:42;1.77;;;1.67;;
489;SDS011;231;48.120;11.576;2023-04-25T12:44:12;1.73;;;1.63;;
489;SDS011;231;48.120;11.576;2023-04-25T12:46:40;1.77;;;1.70;;
489;SDS011;231;48.120;11.576;2023-04-25T12:49:07;2.70;;;2.40;;
489;SDS011;231;48.120;11.576;2023-04-25T12:51:35;1.53;;;1.43;;
489;SDS011;231;48.120;11.576;2023-04-25T12:54:04;1.73;;;1.63;;
489;SDS011;231;48.120;11.576;2023-04-25T12:56:35;1.63;;;1.57;;
489;SDS011;231;48.120;11.576;2023-04-25T12:59:04;1.63;;;1.63;;
489;SDS011;231;48.120;11.576;2023-04-25T13:01:37;1.90;;;1.80;;
489;SDS011;231;48.120;11.576;2023-04-25T13:04:05;1.77;;;1.67;;
489;SDS011;231;48.120;11.576;2023-04-25T13:06:35;1.53;;;1.43;;
489;SDS011;231;48.120;11.576;2023-04-25T13:16:08;1.63;;;1.53;;
489;SDS011;231;48.120;11.576;2023-04-25T13:18:53;1.30;;;1.20;;
489;SDS011;231;48.120;11.576;2023-04-25T13:22:01;3.87;;;1.60;;
489;SDS011;231;48.120;11.576;2023-04-25T13:25:21;2.10;;;2.00;;
489;SDS011;231;48.120;11.576;2023-04-25T13:28:21;1.93;;;1.83;;
489;SDS011;231;48.120;11.576;2023-04-25T13:30:57;3.27;;;2.10;;
489;SDS011;231;48.120;11.576;2023-04-25T13:42:50;1.80;;;1.63;;
489;SDS011;231;48.120;11.576;2023-04-25T13:45:58;10.40;;;1.80;;
489;SDS011;231;48.120;11.576;2023-04-25T13:49:02;2.63;;;1.80;;
489;SDS011;231;48.120;11.576;2023-04-25T13:51:29;2.40;;;2.20;;
489;SDS011;231;48.120;11.576;2023-04-25T13:54:05;2.03;;;1.90;;
489;SDS011;231;48.120;11.576;2023-04-25T13:56:32;3.53;;;3.33;;
489;SDS011;231;48.120;11.576;2023-04-25T13:59:00;3.67;;;3.47;;
489;SDS011;231;48.120;11.576;2023-04-25T14:01:37;2.90;;;2.70;;
489;SDS011;231;48.120;11.576;2023-04-25T14:04:11;14.70;;;2.43;;
489;SDS011;231;48.120;11.576;2023-04-25T14:06:43;4.37;;;2.63;;
489;SDS011;231;48.120;11.576;2023-04-25T14:09:16;3.03;;;2.83;;
489;SDS011;231;48.120;11.576;2023-04-25T14:11:54;2.80;;;2.60;;
489;SDS011;231;48.120;11.576;2023-04-25T14:14:24;2.40;;;2.20;;
489;SDS011;231;48.120;11.576;2023-04-25T14:16:52;3.07;;;2.40;;
489;SDS011;231;48.120;11.576;2023-04-25T14:19:24;2.43;;;2.07;;
489;SDS011;231;48.120;11.576;2023-04-25T14:21:52;2.10;;;1.40;;
489;SDS011;231;48.120;11.576;2023-04-25T14:24:22;1.93;;;1.87;;
489;SDS011;231;48.120;11.576;2023-04-25T14:26:52;2.40;;;1.70;;
489;SDS011;231;48.120;11.576;2023-04-25T14:29:20;2.00;;;1.70;;
489;SDS011;231;48.120;11.576;2023-04-25T14:31:51;2.60;;;1.90;;
489;SDS011;231;48.120;11.576;2023-04-25T14:34:23;2.20;;;2.00;;
489;SDS011;231;48.120;11.576;2023-04-25T14:37:06;2.63;;;2.43;;
489;SDS011;231;48.120;11.576;2023-04-25T14:39:47;2.53;;;2.33;;
489;SDS011;231;48.120;11.576;2023-04-25T14:42:17;3.43;;;3.23;;
489;SDS011;231;48.120;11.576;2023-04-25T14:44:52;3.80;;;3.60;;
489;SDS011;231;48.120;11.576;2023-04-25T14:47:37;3.70;;;3.50;;
489;SDS011;231;48.120;11.576;2023-04-25T15:27:42;1.50;;;1.40;;
489;SDS011;231;48.120;11.576;2023-04-25T15:34:23;1.07;;;1.00;;
489;SDS011;231;48.120;11.576;2023-04-25T15:37:23;1.30;;;1.27;;
489;SDS011;231;48.120;11.576;2023-04-25T15:40:28;1.20;;;1.10;;
489;SDS011;231;48.120;11.576;2023-04-25T15:43:05;1.50;;;1.40;;
489;SDS011;231;48.120;11.576;2023-04-25T15:45:40;2.00;;;1.90;;
489;SDS011;231;48.120;11.576;2023-04-25T15:48:07;2.20;;;1.83;;
489;SDS011;231;48.120;11.576;2023-04-25T15:50:37;1.40;;;1.30;;
489;SDS011;231;48.120;11.576;2023-04-25T15:53:06;1.83;;;1.77;;
489;SDS011;231;48.120;11.576;2023-04-25T15:55:35;5.27;;;1.80;;
489;SDS011;231;48.120;11.576;2023-04-25T15:58:02;2.00;;;1.87;;
489;SDS011;231;48.120;11.576;2023-04-25T16:00:31;1.80;;;1.70;;
489;SDS011;231;48.120;11.576;2023-04-25T16:03:00;2.07;;;1.93;;
489;SDS011;231;48.120;11.576;2023-04-25T16:05:28;2.07;;;1.93;;
489;SDS011;231;48.120;11.576;2023-04-25T16:07:58;1.80;;;1.70;;
489;SDS011;231;48.120;11.576;2023-04-25T16:10:55;2.00;;;1.90;;
489;SDS011;231;48.120;11.576;2023-04-25T16:14:00;2.60;;;2.40;;
489;SDS011;231;48.120;11.576;2023-04-25T16:16:37;2.40;;;2.20;;
489;SDS011;231;48.120;11.576;2023-04-25T16:19:24;3.33;;;3.13;;
489;SDS011;231;48.120;11.576;2023-04-25T16:22:10;3.37;;;3.17;;
489;SDS011;231;48.120;11.576;2023-04-25T16:25:10;4.70;;;3.67;;
489;SDS011;231;48.120;11.576;2023-04-25T16:27:56;3.20;;;3.00;;
489;SDS011;231;48.120;11.576;2023-04-25T16:30:39;3.00;;;2.80;;
489;SDS011;231;48.120;11.576;2023-04-25T16:33:47;4.90;;;4.60;;
489;SDS011;231;48.120;11.576;2023-04-25T16:36:32;3.40;;;3.20;;
489;SDS011;231;48.120;11.576;2023-04-25T16:40:00;3.33;;;3.13;;
489;SDS011;231;48.120;11.576;2023-04-25T16:42:29;4.13;;;3.90;;
489;SDS011;231;48.120;11.576;2023-04-25T16:45:21;3.80;;;3.60;;
489;SDS011;231;48.120;11.576;2023-04-25T16:48:11;4.23;;;3.97;;
489;SDS011;231;48.120;11.576;2023-04-25T16:54:51;4.10;;;3.90;;
489;SDS011;231;48.120;11.576;2023-04-25T16:57:39;4.00;;;3.80;;
489;SDS011;231;48.120;11.576;2023-04-25T17:00:19;4.83;;;4.53;;
489;SDS011;231;48.120;11.576;2023-04-25T17:02:57;4.27;;;4.00;;
489;SDS011;231;48.120;11.576;2023-04-25T17:05:34;4.57;;;4.27;;
489;SDS011;231;48.120;11.576;2023-04-25T17:08:22;4.53;;;4.23;;
489;SDS011;231;48.120;11.576;2023-04-25T17:11:00;4.60;;;4.30;;
489;SDS011;231;48.120;11.576;2023-04-25T17:13:36;5.27;;;4.97;;
489;SDS011;231;48.120;11.576;2023-04-25T17:16:09;5.07;;;4.77;;
489;SDS011;231;48.120;11.576;2023-04-25T17:18:47;5.30;;;5.00;;
489;SDS011;231;48.120;11.576;2023-04-25T17:21:16;5.83;;;5.53;;
489;SDS011;231;48.120;11.576;2023-04-25T17:23:44;6.87;;;6.47;;
489;SDS011;231;48.120;11.576;2023-04-25T17:26:11;5.47;;;5.17;;
489;SDS011;231;48.120;11.576;2023-04-25T17:28:39;5.60;;;5.30;;
489;SDS011;231;48.120;11.576;2023-04-25T17:31:11;5.80;;;5.50;;
489;SDS011;231;48.120;11.576;2023-04-25T17:33:41;4.67;;;4.37;;
489;SDS011;231;48.120;11.576;2023-04-25T17:36:16;4.50;;;4.20;;
489;SDS011;231;48.120;11.576;2023-04-25T17:38:49;6.30;;;4.73;;
489;SDS011;231;48.120;11.576;2023-04-25T17:41:25;4.90;;;3.43;;
489;SDS011;231;48.120;11.576;2023-04-25T17:44:30;4.77;;;4.47;;
489;SDS011;231;48.120;11.576;2023-04-25T17:47:11;4.97;;;3.90;;
489;SDS011;231;48.120;11.576;2023-04-25T17:49:51;4.63;;;4.33;;
489;SDS011;231;48.120;11.576;2023-04-25T17:52:25;5.37;;;5.07;;
489;SDS011;231;48.120;11.576;2023-04-25T17:55:01;6.33;;;5.33;;
489;SDS011;231;48.120;11.576;2023-04-25T17:57:40;5.03;;;4.60;;
489;SDS011;231;48.120;11.576;2023-04-25T18:00:08;5.60;;;5.30;;
489;SDS011;231;48.120;11.576;2023-04-25T18:02:40;4.37;;;4.07;;
489;SDS011;231;48.120;11.576;2023-04-25T18:05:15;4.43;;;4.13;;
489;SDS011;231;48.120;11.576;2023-04-25T18:07:44;4.93;;;4.63;;
489;SDS011;231;48.120;11.576;2023-04-25T18:10:14;5.43;;;5.10;;
489;SDS011;231;48.120;11.576;2023-04-25T18:12:49;4.60;;;4.30;;
489;SDS011;231;48.120;11.576;2023-04-25T18:15:19;4.73;;;4.43;;
489;SDS011;231;48.120;11.576;2023-04-25T18:17:53;5.50;;;5.20;;
489;SDS011;231;48.120;11.576;2023-04-25T18:20:39;7.70;;;6.90;;
489;SDS011;231;48.120;11.576;2023-04-25T18:23:08;13.83;;;6.60;;
489;SDS011;231;48.120;11.576;2023-04-25T18:25:36;5.77;;;4.03;;
489;SDS011;231;48.120;11.576;2023-04-25T18:28:03;7.70;;;4.30;;
489;SDS011;231;48.120;11.576;2023-04-25T18:30:30;3.63;;;3.43;;
489;SDS011;231;48.120;11.576;2023-04-25T18:32:57;2.67;;;2.30;;
489;SDS011;231;48.120;11.576;2023-04-25T21:24:44;9.70;;;9.20;;
489;SDS011;231;48.120;11.576;2023-04-25T21:27:14;11.50;;;10.90;;
489;SDS011;231;48.120;11.576;2023-04-25T21:29:42;10.37;;;9.87;;
489;SDS011;231;48.120;11.576;2023-04-25T21:32:10;12.10;;;11.43;;
489;SDS011;231;48.120;11.576;2023-04-25T21:34:40;11.73;;;10.47;;
489;SDS011;231;48.120;11.576;2023-04-25T21:37:08;10.77;;;10.17;;
489;SDS011;231;48.120;11.576;2023-04-25T21:39:35;9.70;;;8.50;;
489;SDS011;231;48.120;11.576;2023-04-25T21:42:04;12.33;;;10.77;;
489;SDS011;231;48.120;11.576;2023-04-25T21:44:35;10.57;;;10.00;;
489;SDS011;231;48.120;11.576;2023-04-25T21:47:02;11.77;;;10.43;;
489;SDS011;231;48.120;11.576;2023-04-25T21:49:29;10.27;;;9.80;;
489;SDS011;231;48.120;11.576;2023-04-25T21:51:57;12.30;;;11.70;;
489;SDS011;231;48.120;11.576;2023-04-25T21:54:23;10.63;;;10.03;;
489;SDS011;231;48.120;11.576;2023-04-25T21:56:51;11.70;;;10.90;;
489;SDS011;231;48.120;11.576;2023-04-25T21:59:20;10.93;;;10.33;;
489;SDS011;231;48.120;11.576;2023-04-25T22:01:49;11.77;;;11.17;;
489;SDS011;231;48.120;11.576;2023-04-25T22:04:15;10.80;;;10.20;;
489;SDS011;231;48.120;11.576;2023-04-25T22:06:42;9.87;;;9.37;;
489;SDS011;231;48.120;11.576;2023-04-25T22:09:10;9.80;;;9.30;;
489;SDS011;231;48.120;11.576;2023-04-25T22:11:37;11.20;;;10.60;;
489;SDS011;231;48.120;11.576;2023-04-25T22:14:04;10.53;;;9.43;;
489;SDS011;231;48.120;11.576;2023-04-25T22:16:33;11.23;;;10.40;;
489;SDS011;231;48.120;11.576;2023-04-25T22:19:00;13.47;;;10.97;;
489;SDS011;231;48.120;11.576;2023-04-25T22:21:27;11.97;;;11.43;;
489;SDS011;231;48.120;11.576;2023-04-25T22:23:53;11.27;;;10.67;;
489;SDS011;231;48.120;11.576;2023-04-25T22:26:20;11.60;;;11.00;;
489;SDS011;231;48.120;11.576;2023-04-25T22:28:48;12.93;;;12.30;;
489;SDS011;231;48.120;11.576;2023-04-25T22:31:15;13.17;;;12.53;;
489;SDS011;231;48.120;11.576;2023-04-25T22:33:43;13.33;;;12.63;;
489;SDS011;231;48.120;11.576;2023-04-25T22:36:12;13.73;;;13.03;;
489;SDS011;231;48.120;11.576;2023-04-25T22:38:39;13.60;;;11.67;;
489;SDS011;231;48.120;11.576;2023-04-25T22:41:07;13.17;;;12.50;;
489;SDS011;231;48.120;11.576;2023-04-25T22:43:34;14.10;;;13.00;;
489;SDS011;231;48.120;11.576;2023-04-25T22:46:03;13.97;;;13.27;;
489;SDS011;231;48.120;11.576;2023-04-25T22:48:31;14.20;;;13.50;;
489;SDS011;231;48.120;11.576;2023-04-25T22:51:02;13.40;;;12.70;;
489;SDS011;231;48.120;11.576;2023-04-25T22:53:30;14.00;;;13.30;;
489;SDS011;231;48.120;11.576;2023-04-25T22:56:00;13.70;;;13.00;;
489;SDS011;231;48.120;11.576;2023-04-25T22:58:28;13.40;;;12.00;;
489;SDS011;231;48.120;11.576;2023-04-25T23:00:55;16.30;;;12.83;;
489;SDS011;231;48.120;11.576;2023-04-25T23:03:22;13.60;;;12.90;;
489;SDS011;231;48.120;11.576;2023-04-25T23:05:49;14.63;;;12.30;;
489;SDS011;231;48.120;11.576;2023-04-25T23:08:17;12.87;;;12.17;;
489;SDS011;231;48.120;11.576;2023-04-25T23:10:44;15.37;;;14.03;;
489;SDS011;231;48.120;11.576;2023-04-25T23:13:11;13.00;;;12.30;;
489;SDS011;231;48.120;11.576;2023-04-25T23:15:39;16.23;;;15.33;;